Delta, OH

12:08 PM EDT on March 30, 2017 (GMT -0400)
Delta | | Change Station
Active Advisory: Flood Watch Active Notice: Flood Watch

Elev 726 ft 41.58 °N, 84.01 °W | Updated 17 seconds ago

Rain
Rain
39.4 °F
Feels Like 36 °F
N
5.0
Wind Variable Wind from ENE

Today
High -- | Low -- °F
--% Chance of Precip.
Yesterday
High -- | Low -- °F
Precip. -- in
Pressure 29.85 in
Visibility 8.0 miles
Clouds Mostly Cloudy 900 ft
Mostly Cloudy 1200 ft
Overcast 4100 ft
Windchill 36 °F
Dew Point 38 °F
Humidity 95%
Rainfall 0.35 in
Snow Depth Not available.
7:21 AM 7:59 PM
Waxing Crescent, 9% visible
METAR KUSE 301555Z AUTO 08021KT 8SM -RA BKN009 BKN012 OVC041 04/04 A2985 RMK AO2
Pressure 29.85 in
Visibility 8.0 miles
Clouds Mostly Cloudy 900 ft
Mostly Cloudy 1200 ft
Overcast 4100 ft
Windchill 36 °F
Dew Point 38 °F
Humidity 95%
Rainfall 0.35 in
Snow Depth Not available.
7:21 AM 7:59 PM
Waxing Crescent, 9% visible
METAR KUSE 301555Z AUTO 08021KT 8SM -RA BKN009 BKN012 OVC041 04/04 A2985 RMK AO2

Get Your Daily Forecast Email!

Thanks for signing up!

Be on the lookout for a verification email in your inbox.

You'll start receiving severe weather alerts in your inbox..

×

10-Day Weather Forecast

Almanac

Astronomy

Mar. 30, 2017 Rise Set
Actual Time
Civil Twilight
Nautical Twilight
Astronomical Twilight
Moon
Length of Visible Light
Length of Day
Tomorrow will be .
, % of the Moon is Illuminated

Today's Extremes

State Highs State Lows

Community

WunderPhotos

Upload Photos

1,962,540 photos uploaded!

WunderBlog® & News

Nearby

Air Quality

  Air Quality AQ Index Pollutant
Not available.

Snow Depth

Station Depth Elevation

Earthquake Activity

City Distance Mag. Time & Date
Minimum magnitude displayed is 2.5.

Earthquake Activity

City Distance Mag. Time & Date
Minimum magnitude displayed is 2.5.

Coastal Water Temperatures

Place Temperature

Stations

Nearby Weather Stations

Station Location Temp. Windchill Dew Point Humidity Wind Precip. Elev Updated Type
                   

Watches & Warnings

Flood Watch
Issued: 11:46 AM EDT Mar. 30, 2017 – National Weather Service

The National Weather Service in northern Indiana has issued a
* Flood Watch for
the Tiffin River near Stryker.
* From Saturday evening until further notice.
* At 10 am Thursday the stage was 6.4 feet and steady.
* Flooding is possible.
* Flood stage is 11.0 feet.
* Forecast... if current precipitation forecasts hold... the river may
rise to near 12.4 feet Monday morning.



Lat... Lon 4130 8444 4149 8446 4159 8439 4159 8429
      4130 8438